• Join FlightAware (Why Join?)
  • Login
  • US Flag 
03:18PM EDT


 

Airport Tracker/Info


-or-


 

Live Flight TrackerFlight Track Log ✈ AWE3997 ✈ 29-Oct-2013 ✈ KCLT - KHSV

Flight Track Log - Related Links

Times and Time Zones

All times are in EDT time to prevent confusion due to time zone crossing. See the AWE3997 flight status page for this flight to view local times or setup timezone preferences in your user account.

Time Position Orientation Groundspeed Altitude Reporting Facility
EDT Latitude Longitude Course Direction KTS MPH feet Rate Location/Type
09:15AM 35.2247 -80.9572 259° West 152 175 1,400  Level Atlanta Center
09:15AM 35.2353 -80.9619 340° North 157 181 2,000 2,100 Climbing Atlanta Center
09:16AM 35.2778 -80.9936 329° Northwest 211 243 3,800 2,340 Climbing Atlanta Center
09:17AM 35.2922 -81.0719 283° West 268 308 6,600 2,520 Climbing Atlanta Center
09:18AM 35.1791 -81.4032 239° Southwest  Level Estimated
09:18AM 35.2711 -81.1439 250° West 280 322 8,700  Level Atlanta Center
09:18AM 35.2692 -81.1592 261° West 288 331 9,600 2,580 Climbing Atlanta Center
09:19AM 35.1701 -81.5166 270° West  Level Estimated
09:19AM 35.2481 -81.2336 251° West 314 361 11,300  Level Atlanta Center
09:20AM 35.1611 -81.6301 259° West  Level Estimated
09:20AM 35.2233 -81.3361 254° West 326 375 13,500  Level Atlanta Center
09:21AM 35.1925 -81.4542 252° West 326 375 15,700 2,100 Climbing Atlanta Center
09:22AM 35.1633 -81.5617 252° West 334 384 17,700 1,560 Climbing Atlanta Center
09:23AM 35.1364 -81.6717 253° West 340 391 18,900 1,140 Climbing Atlanta Center
09:24AM 35.1281 -81.7836 265° West 340 391 20,000 540 Climbing Atlanta Center
09:25AM 35.1197 -81.9058 265° West 347 399 20,000  Level Atlanta Center
09:26AM 35.1092 -82.0203 264° West 347 399 20,000  Level Atlanta Center
09:27AM 35.1006 -82.1372 265° West 354 407 20,000  Level Atlanta Center
09:28AM 35.0917 -82.2467 264° West 349 402 20,000  Level Atlanta Center
09:29AM 35.0831 -82.3636 265° West 344 396 20,000  Level Atlanta Center
09:30AM 35.0739 -82.4703 264° West 339 390 20,000  Level Atlanta Center
09:31AM 35.0628 -82.5847 263° West 334 384 20,000  Level Atlanta Center
09:32AM 35.0536 -82.6914 264° West 327 376 20,000  Level Atlanta Center
09:33AM 35.0444 -82.8033 264° West 332 382 20,000  Level Atlanta Center
09:34AM 35.0331 -82.9175 263° West 337 388 20,000  Level Atlanta Center
09:35AM 35.0256 -83.0292 265° West 337 388 20,000  Level Atlanta Center
09:36AM 35.0139 -83.1386 263° West 332 382 20,000  Level Atlanta Center
09:37AM 35.0064 -83.2400 265° West 332 382 20,000  Level Atlanta Center
09:38AM 34.9986 -83.3467 265° West 332 382 20,000  Level Atlanta Center
09:39AM 34.9844 -83.4583 261° West 332 382 20,000  Level Atlanta Center
09:40AM 34.9747 -83.5775 264° West 332 382 20,000  Level Atlanta Center
09:41AM 34.9667 -83.6864 265° West 332 382 20,000  Level Atlanta Center
09:42AM 34.9544 -83.7956 262° West 332 382 20,000  Level Atlanta Center
09:43AM 34.9442 -83.9044 263° West 332 382 20,000  Level Atlanta Center
09:44AM 34.9442 -84.0133 270° West 332 382 20,000  Level Atlanta Center
09:45AM 34.9464 -84.1222 271° West 327 376 20,000  Level Atlanta Center
09:46AM 34.9503 -84.2314 273° West 327 376 20,000  Level Atlanta Center
09:47AM 34.9500 -84.3428 270° West 327 376 20,000  Level Atlanta Center
09:48AM 34.9539 -84.4772 272° West 327 376 20,000  Level Atlanta Center
09:49AM 34.9556 -84.5861 271° West 327 376 20,000  Level Atlanta Center
09:50AM 34.9569 -84.6953 271° West 327 376 20,000  Level Atlanta Center
09:51AM 34.9586 -84.8067 271° West 332 382 20,000  Level Atlanta Center
09:52AM 34.9597 -84.9208 271° West 332 382 20,000  Level Atlanta Center
09:53AM 34.9611 -85.0297 271° West 326 375 20,000 -480 Level Atlanta Center
09:54AM 34.9603 -85.1411 270° West 331 381 19,100 -1,200 Descending Atlanta Center
09:56AM 34.9400 -85.3567 264° West 326 375 16,400 -1,380 Descending Memphis Center
09:57AM 34.9278 -85.4689 262° West 331 381 15,100 -1,320 Descending Memphis Center
09:58AM 34.9172 -85.5758 263° West 331 381 13,800 -1,320 Descending Memphis Center
09:59AM 34.9067 -85.6803 263° West 331 381 12,500 -1,320 Descending Memphis Center
10:00AM 34.8942 -85.7922 262° West 331 381 11,200 -780 Descending Memphis Center
10:01AM 34.8814 -85.8992 262° West 331 381 11,000 -420 Descending Memphis Center
10:02AM 34.8703 -86.0011 262° West 331 381 10,400 -1,200 Descending Memphis Center
10:03AM 34.8608 -86.0928 263° West 303 349 8,700 -1,620 Descending Memphis Center
10:04AM 34.8514 -86.1817 263° West 283 326 7,200 -1,320 Descending Memphis Center
10:05AM 34.8400 -86.2733 261° West 274 315 6,100 -1,020 Descending Memphis Center
10:06AM 34.8281 -86.3600 260° West 274 315 5,200 -540 Descending Memphis Center
10:07AM 34.8183 -86.4464 262° West 269 310 5,100 -60 Descending Memphis Center
10:08AM 34.8067 -86.5356 261° West 269 310 5,100 -180 Level Memphis Center
10:09AM 34.7986 -86.6192 263° West 264 304 4,800 -900 Descending Memphis Center
10:10AM 34.7567 -86.6792 230° Southwest 234 269 3,300 -1,200 Descending Memphis Center
10:11AM 34.7567 -86.7525 270° West 228 262 2,500 -600 Descending Memphis Center
10:12AM 34.7222 -86.7819 215° Southwest 172 198 2,100 -600 Descending Memphis Center
10:13AM 34.6847 -86.7833 182° South 141 162 1,400 -660 Descending Memphis Center
10:14AM 34.6533 -86.7847 182° South 136 157 800 -600 Descending Memphis Center